createdAt,value
2019-04-01T00:04:35.958Z,0
2019-04-01T00:09:36.234Z,0
2019-04-01T00:14:36.072Z,0
2019-04-01T00:19:36.056Z,0
2019-04-01T00:24:36.068Z,0
2019-04-01T00:29:36.327Z,0
2019-04-01T00:34:35.957Z,0
2019-04-01T00:39:36.175Z,0
2019-04-01T00:44:35.942Z,0
2019-04-01T00:49:36.306Z,0
2019-04-01T00:54:36.124Z,0
2019-04-01T00:59:36.080Z,0
2019-04-01T01:04:36.298Z,0
2019-04-01T01:09:35.926Z,0
2019-04-01T01:14:35.961Z,0
2019-04-01T01:19:35.975Z,0
2019-04-01T01:24:35.929Z,0
2019-04-01T01:29:36.223Z,0
2019-04-01T01:34:35.965Z,0
2019-04-01T01:39:36.106Z,0
2019-04-01T01:44:36.001Z,0
2019-04-01T01:49:35.889Z,0
2019-04-01T01:54:35.899Z,0
2019-04-01T01:59:36.063Z,0
2019-04-01T02:04:35.893Z,0
2019-04-01T02:09:35.885Z,0
2019-04-01T02:14:35.914Z,0
2019-04-01T02:19:35.816Z,0
2019-04-01T02:24:35.865Z,0
2019-04-01T02:29:36.045Z,0
2019-04-01T02:34:35.948Z,0
2019-04-01T02:39:35.960Z,0
2019-04-01T02:44:35.870Z,0
2019-04-01T02:49:36.106Z,0
2019-04-01T02:54:35.669Z,0
2019-04-01T02:59:36.069Z,0
2019-04-01T03:04:35.743Z,0
2019-04-01T03:09:35.756Z,0
2019-04-01T03:14:35.699Z,0
2019-04-01T03:19:35.843Z,0
2019-04-01T03:24:35.974Z,0
2019-04-01T03:29:36.094Z,0
2019-04-01T03:34:35.970Z,0
2019-04-01T03:39:35.781Z,0
2019-04-01T03:44:35.653Z,0
2019-04-01T03:49:35.824Z,0
2019-04-01T03:54:35.530Z,0
2019-04-01T03:59:35.744Z,0
2019-04-01T04:04:35.957Z,0
2019-04-01T04:09:36.116Z,0
2019-04-01T04:14:35.899Z,0
2019-04-01T04:19:36.433Z,0
2019-04-01T04:24:35.828Z,0
2019-04-01T04:29:35.660Z,0
2019-04-01T04:34:35.827Z,0
2019-04-01T04:39:35.883Z,0
2019-04-01T04:44:35.797Z,0
2019-04-01T04:49:35.959Z,0
2019-04-01T04:54:35.689Z,0
2019-04-01T04:59:35.805Z,0
2019-04-01T05:04:35.749Z,0
2019-04-01T05:09:35.677Z,0
2019-04-01T05:14:35.615Z,0
2019-04-01T05:19:35.603Z,0.8
2019-04-01T05:24:35.745Z,1.7
2019-04-01T05:29:35.632Z,3.3
2019-04-01T05:34:35.475Z,4.2
2019-04-01T05:39:35.641Z,5.8
2019-04-01T05:44:35.404Z,7.5
2019-04-01T05:49:35.546Z,8.3
2019-04-01T05:54:35.721Z,10
2019-04-01T05:59:35.468Z,10.8
2019-04-01T06:04:35.386Z,11.7
2019-04-01T06:09:35.804Z,13.3
2019-04-01T06:14:35.430Z,15
2019-04-01T06:19:35.471Z,16.7
2019-04-01T06:24:35.518Z,17.5
2019-04-01T06:29:35.577Z,19.2
2019-04-01T06:34:35.541Z,21.7
2019-04-01T06:39:35.758Z,23.3
2019-04-01T06:44:35.816Z,25
2019-04-01T06:49:35.423Z,25.8
2019-04-01T06:54:35.646Z,27.5
2019-04-01T06:59:35.783Z,28.3
2019-04-01T07:04:35.472Z,30
2019-04-01T07:09:35.683Z,31.7
2019-04-01T07:14:35.424Z,33.3
2019-04-01T07:19:35.507Z,34.2
2019-04-01T07:24:35.679Z,35
2019-04-01T07:29:35.638Z,36.7
2019-04-01T07:34:35.594Z,37.5
2019-04-01T07:39:35.421Z,38.3
2019-04-01T07:44:35.604Z,39.2
2019-04-01T07:49:35.363Z,40
2019-04-01T07:54:35.576Z,40.8
2019-04-01T07:59:35.472Z,42.5
2019-04-01T08:04:35.305Z,42.5
2019-04-01T08:09:35.233Z,43.3
2019-04-01T08:14:35.655Z,44.2
2019-04-01T08:19:35.411Z,44.2
2019-04-01T08:24:35.253Z,45
2019-04-01T08:29:35.262Z,45
2019-04-01T08:34:35.395Z,45.8
2019-04-01T08:39:35.379Z,45.8
2019-04-01T08:44:35.316Z,45.8
2019-04-01T08:49:35.529Z,45.8
2019-04-01T08:54:35.324Z,46.7
2019-04-01T08:59:35.285Z,46.7
2019-04-01T09:04:35.440Z,46.7
2019-04-01T09:09:35.468Z,46.7
2019-04-01T09:14:35.153Z,47.5
2019-04-01T09:19:35.209Z,47.5
2019-04-01T09:24:35.337Z,47.5
2019-04-01T09:29:35.498Z,48.3
2019-04-01T09:34:35.456Z,48.3
2019-04-01T09:39:35.270Z,49.2
2019-04-01T09:44:37.091Z,49.2
2019-04-01T09:49:35.193Z,49.2
2019-04-01T09:54:35.347Z,49.2
2019-04-01T09:59:35.027Z,49.2
2019-04-01T10:04:35.276Z,50
2019-04-01T10:09:35.033Z,50.8
2019-04-01T10:14:35.048Z,51.7
2019-04-01T10:19:35.151Z,51.7
2019-04-01T10:24:34.993Z,51.7
2019-04-01T10:29:35.096Z,51.7
2019-04-01T10:34:34.981Z,51.7
2019-04-01T10:39:35.227Z,52.5
2019-04-01T10:44:35.170Z,53.3
2019-04-01T10:49:35.329Z,53.3
2019-04-01T10:54:35.155Z,53.3
2019-04-01T10:59:35.205Z,54.2
2019-04-01T11:04:34.999Z,55.8
2019-04-01T11:09:38.484Z,58.3
2019-04-01T11:14:35.101Z,59.2
2019-04-01T11:19:35.064Z,59.2
2019-04-01T11:24:35.193Z,60.8
2019-04-01T11:29:35.242Z,60.8
2019-04-01T11:34:35.007Z,62.5
2019-04-01T11:39:36.160Z,62.5
2019-04-01T11:44:35.119Z,63.3
2019-04-01T11:49:34.941Z,64.2
2019-04-01T11:54:35.332Z,68.3
2019-04-01T11:59:35.039Z,71.7
2019-04-01T12:04:35.131Z,73.3
2019-04-01T12:09:35.185Z,75
2019-04-01T12:14:35.167Z,77.5
2019-04-01T12:19:35.247Z,80
2019-04-01T12:24:34.977Z,82.5
2019-04-01T12:29:35.005Z,87.5
2019-04-01T12:34:35.191Z,93.3
2019-04-01T12:39:35.030Z,106.7
2019-04-01T12:44:35.200Z,135
2019-04-01T12:49:35.014Z,154.2
2019-04-01T12:54:34.867Z,201.7
2019-04-01T12:59:34.723Z,253.3
2019-04-01T13:04:36.168Z,285.8
2019-04-01T13:09:34.788Z,304.2
2019-04-01T13:14:34.986Z,348.3
2019-04-01T13:19:34.796Z,368.3
2019-04-01T13:24:34.910Z,370.8
2019-04-01T13:29:34.891Z,377.5
2019-04-01T13:34:34.859Z,380
2019-04-01T13:39:34.766Z,382.5
2019-04-01T13:44:37.320Z,386.7
2019-04-01T13:49:34.940Z,389.2
2019-04-01T13:54:35.040Z,393.3
2019-04-01T13:59:48.440Z,397.5
2019-04-01T14:04:34.987Z,398.3
2019-04-01T14:09:34.760Z,404.2
2019-04-01T14:14:34.943Z,410
2019-04-01T14:19:34.840Z,423.3
2019-04-01T14:24:34.918Z,428.3
2019-04-01T14:29:36.643Z,438.3
2019-04-01T14:34:35.635Z,447.5
2019-04-01T14:39:34.956Z,451.7
2019-04-01T14:44:34.718Z,465.8
2019-04-01T14:49:35.067Z,476.7
2019-04-01T14:54:34.965Z,501.7
2019-04-01T14:59:34.681Z,502.5
2019-04-01T15:04:34.629Z,513.3
2019-04-01T15:09:34.768Z,513.3
2019-04-01T15:14:34.838Z,510.8
2019-04-01T15:19:34.559Z,509.2
2019-04-01T15:24:34.578Z,501.7
2019-04-01T15:29:34.922Z,497.5
2019-04-01T15:34:34.759Z,480.8
2019-04-01T15:39:34.877Z,480
2019-04-01T15:44:34.996Z,465.8
2019-04-01T15:49:34.965Z,449.2
2019-04-01T15:54:34.861Z,437.5
2019-04-01T15:59:35.126Z,418.3
2019-04-01T16:04:34.953Z,360.8
2019-04-01T16:09:34.646Z,320.8
2019-04-01T16:14:34.807Z,311.7
2019-04-01T16:19:34.652Z,122.5
2019-04-01T16:24:34.656Z,79.2
2019-04-01T16:29:34.828Z,53.3
2019-04-01T16:34:34.881Z,61.7
2019-04-01T16:39:34.538Z,64.2
2019-04-01T16:44:34.877Z,58.3
2019-04-01T16:49:35.389Z,42.5
2019-04-01T16:54:34.610Z,29.2
2019-04-01T16:59:34.599Z,21.7
2019-04-01T17:04:34.532Z,19.2
2019-04-01T17:09:35.149Z,18.3
2019-04-01T17:14:34.517Z,16.7
2019-04-01T17:19:34.770Z,15.8
2019-04-01T17:24:34.735Z,14.2
2019-04-01T17:29:34.436Z,12.5
2019-04-01T17:34:34.538Z,10.8
2019-04-01T17:39:34.565Z,10
2019-04-01T17:44:34.609Z,8.3
2019-04-01T17:49:34.429Z,6.7
2019-04-01T17:54:34.726Z,5
2019-04-01T17:59:34.381Z,3.3
2019-04-01T18:04:34.682Z,2.5
2019-04-01T18:09:34.550Z,1.7
2019-04-01T18:14:34.499Z,0.8
2019-04-01T18:19:36.135Z,0
2019-04-01T18:24:34.564Z,0
2019-04-01T18:29:34.601Z,0
2019-04-01T18:34:34.283Z,0
2019-04-01T18:39:47.395Z,0
2019-04-01T18:44:34.228Z,0
2019-04-01T18:49:34.368Z,0
2019-04-01T18:54:34.607Z,0
2019-04-01T18:59:34.655Z,0
2019-04-01T19:04:34.411Z,0
2019-04-01T19:09:34.445Z,0
2019-04-01T19:14:34.232Z,0
2019-04-01T19:19:34.610Z,0
2019-04-01T19:24:34.538Z,0
2019-04-01T19:29:34.382Z,0
2019-04-01T19:34:36.037Z,0
2019-04-01T19:39:34.475Z,0
2019-04-01T19:44:34.278Z,0
2019-04-01T19:49:34.473Z,0
2019-04-01T19:54:34.544Z,0
2019-04-01T19:59:35.765Z,0
2019-04-01T20:04:34.418Z,0
2019-04-01T20:09:34.487Z,0
2019-04-01T20:14:34.444Z,0
2019-04-01T20:19:34.373Z,0
2019-04-01T20:24:34.479Z,0
2019-04-01T20:29:34.408Z,0
2019-04-01T20:34:34.185Z,0
2019-04-01T20:39:34.211Z,0
2019-04-01T20:44:34.220Z,0
2019-04-01T20:49:34.404Z,0
2019-04-01T20:54:34.183Z,0
2019-04-01T20:59:34.474Z,0
2019-04-01T21:04:34.456Z,0
2019-04-01T21:09:34.140Z,0
2019-04-01T21:14:34.083Z,0
2019-04-01T21:19:34.174Z,0
2019-04-01T21:24:34.450Z,0
2019-04-01T21:29:34.280Z,0
2019-04-01T21:34:34.256Z,0
2019-04-01T21:39:34.042Z,0
2019-04-01T21:44:34.290Z,0
2019-04-01T21:49:34.079Z,0
2019-04-01T21:54:34.075Z,0
2019-04-01T21:59:34.387Z,0
2019-04-01T22:04:34.265Z,0
2019-04-01T22:09:34.446Z,0
2019-04-01T22:14:34.199Z,0
2019-04-01T22:19:34.046Z,0
2019-04-01T22:24:34.267Z,0
2019-04-01T22:29:34.351Z,0
2019-04-01T22:34:34.201Z,0
2019-04-01T22:39:33.965Z,0
2019-04-01T22:44:34.192Z,0
2019-04-01T22:49:34.037Z,0
2019-04-01T22:54:34.206Z,0
2019-04-01T22:59:34.120Z,0
2019-04-01T23:04:36.753Z,0
2019-04-01T23:09:34.034Z,0
2019-04-01T23:14:34.169Z,0
2019-04-01T23:19:34.510Z,0
2019-04-01T23:24:34.115Z,0
2019-04-01T23:29:34.120Z,0
2019-04-01T23:34:34.236Z,0
2019-04-01T23:39:34.287Z,0
2019-04-01T23:44:33.971Z,0
2019-04-01T23:49:34.007Z,0
2019-04-01T23:54:34.065Z,0
2019-04-01T23:59:34.228Z,0
